Time;durP1;ratioP1;P1;durP2;ratioP2;P2;SDS_P1;SDS_P2;PMS_P1;PMS_P2;Temp;Humidity;BMP_temperature;BMP_pressure;BME280_temperature;BME280_humidity;BME280_pressure;Samples;Min_cycle;Max_cycle;Signal;HPM_P1;HPM_P2
2021/04/01 00:00:04;;;;;;;50.45;22.42;;;307.70;1766.40;;;;;;5096286;28;20024;-74
2021/04/01 00:02:30;;;;;;;45.75;20.25;;;307.70;1766.40;;;;;;5095704;28;20089;-75
2021/04/01 00:04:56;;;;;;;42.88;20.05;;;307.70;1766.40;;;;;;5095805;28;20096;-75
2021/04/01 00:07:22;;;;;;;37.22;18.95;;;307.70;1766.40;;;;;;5095629;28;20026;-75
2021/04/01 00:09:48;;;;;;;46.33;22.65;;;307.70;1766.40;;;;;;5095719;28;20021;-75
2021/04/01 00:12:14;;;;;;;48.80;24.33;;;307.70;1766.40;;;;;;5095727;28;20054;-74
2021/04/01 00:14:41;;;;;;;54.00;25.73;;;307.60;1792.00;;;;;;5095663;28;20091;-75
2021/04/01 00:17:08;;;;;;;50.65;26.38;;;307.60;1792.00;;;;;;5095787;28;20024;-75
2021/04/01 00:19:34;;;;;;;50.88;29.73;;;307.60;1766.40;;;;;;5095245;28;20481;-76
2021/04/01 00:22:00;;;;;;;55.45;31.42;;;307.60;1766.40;;;;;;5095787;28;20020;-75
2021/04/01 00:24:25;;;;;;;62.47;34.45;;;307.60;1766.40;;;;;;5095363;28;20449;-75
2021/04/01 00:26:51;;;;;;;82.35;41.05;;;307.50;1766.40;;;;;;5095298;28;20024;-75
2021/04/01 00:29:17;;;;;;;74.30;38.75;;;307.50;1766.40;;;;;;5094975;28;20031;-75
2021/04/01 00:31:43;;;;;;;79.63;38.45;;;307.50;1792.00;;;;;;5095264;28;20054;-73
2021/04/01 00:34:09;;;;;;;69.68;35.35;;;307.50;1766.40;;;;;;5095342;28;20342;-74
2021/04/01 00:36:34;;;;;;;55.70;31.23;;;307.40;1792.00;;;;;;5094990;28;20123;-74
2021/04/01 00:39:00;;;;;;;54.72;30.73;;;307.40;1766.40;;;;;;5094862;28;20027;-72
2021/04/01 00:41:26;;;;;;;60.88;31.90;;;307.40;1792.00;;;;;;5094909;28;20024;-74
2021/04/01 00:43:52;;;;;;;53.00;29.33;;;307.40;1792.00;;;;;;5095088;28;20032;-75
2021/04/01 00:46:17;;;;;;;59.05;28.33;;;307.40;1792.00;;;;;;5093803;28;20374;-74
2021/04/01 00:48:43;;;;;;;51.40;29.70;;;307.40;1792.00;;;;;;5094959;28;20481;-75
2021/04/01 00:51:09;;;;;;;55.30;28.17;;;307.40;1817.60;;;;;;5094760;28;20028;-75
2021/04/01 00:53:35;;;;;;;52.45;29.95;;;307.40;1817.60;;;;;;5094779;28;20030;-75
2021/04/01 00:56:01;;;;;;;58.30;30.13;;;307.40;1817.60;;;;;;5094698;28;20024;-74
2021/04/01 00:58:28;;;;;;;57.15;29.80;;;307.40;1817.60;;;;;;5094654;28;20089;-77
2021/04/01 01:03:38;;;;;;;68.25;33.50;;;307.30;1817.60;;;;;;5094785;28;20203;-75
2021/04/01 01:06:05;;;;;;;66.63;33.97;;;307.30;1817.60;;;;;;5094616;28;20414;-75
2021/04/01 01:08:30;;;;;;;59.78;31.25;;;307.30;1843.20;;;;;;5093973;28;20024;-74
2021/04/01 01:10:56;;;;;;;62.22;31.35;;;307.20;1817.60;;;;;;5094487;28;20416;-75
2021/04/01 01:13:22;;;;;;;61.83;32.05;;;307.20;1843.20;;;;;;5094575;28;20062;-76
2021/04/01 01:15:48;;;;;;;65.80;33.70;;;307.20;1843.20;;;;;;5094060;28;20027;-75
2021/04/01 01:18:13;;;;;;;69.63;32.83;;;307.20;1843.20;;;;;;5094307;28;20056;-72
2021/04/01 01:20:39;;;;;;;58.30;30.05;;;307.20;1817.60;;;;;;5092883;28;20473;-73
2021/04/01 01:23:08;;;;;;;62.60;31.75;;;307.20;1843.20;;;;;;5094176;28;20020;-75
2021/04/01 01:25:34;;;;;;;61.53;31.50;;;307.20;1817.60;;;;;;5093947;28;20020;-75
2021/04/01 01:28:01;;;;;;;62.03;30.13;;;282.50;1792.00;;;;;;5093916;28;20028;-75
2021/04/01 01:30:27;;;;;;;62.22;31.42;;;307.20;1817.60;;;;;;5094344;28;20027;-75
2021/04/01 01:33:02;;;;;;;66.85;35.50;;;282.50;1792.00;;;;;;5093830;28;20051;-75
2021/04/01 01:35:33;;;;;;;71.43;37.17;;;282.50;1817.60;;;;;;5093560;28;20020;-74
2021/04/01 01:38:03;;;;;;;67.88;37.17;;;282.50;1817.60;;;;;;5093733;28;20036;-75
2021/04/01 01:40:31;;;;;;;67.50;37.70;;;282.50;1792.00;;;;;;5092548;28;20521;-75
2021/04/01 01:42:59;;;;;;;70.40;37.78;;;282.40;1792.00;;;;;;5092584;28;20821;-73
2021/04/01 01:45:27;;;;;;;77.15;38.08;;;282.40;1817.60;;;;;;5092819;28;20481;-75
2021/04/01 01:47:53;;;;;;;94.93;49.40;;;282.40;1817.60;;;;;;5093443;28;20028;-74
2021/04/01 01:50:22;;;;;;;105.10;51.20;;;282.40;1817.60;;;;;;5092335;28;20027;-74
2021/04/01 01:52:48;;;;;;;106.20;53.90;;;282.40;1817.60;;;;;;5093230;28;20485;-75
2021/04/01 01:55:14;;;;;;;106.40;49.97;;;282.30;1817.60;;;;;;5093564;28;20024;-75
2021/04/01 01:57:40;;;;;;;106.85;49.97;;;282.30;1817.60;;;;;;5093280;28;20012;-75
2021/04/01 02:00:20;;;;;;;89.72;47.95;;;282.30;1817.60;;;;;;5093321;28;20027;-75
2021/04/01 02:03:00;;;;;;;92.80;49.30;;;282.30;1843.20;;;;;;5093552;28;20024;-74
2021/04/01 02:05:28;;;;;;;106.55;53.97;;;282.30;1817.60;;;;;;5093101;28;20477;-74
2021/04/01 02:07:54;;;;;;;116.28;60.63;;;282.30;1843.20;;;;;;5093648;28;20408;-74
2021/04/01 02:10:32;;;;;;;122.05;59.15;;;282.30;1843.20;;;;;;5092797;28;20028;-75
2021/04/01 02:12:58;;;;;;;129.45;62.58;;;282.30;1817.60;;;;;;5091474;28;20032;-74
2021/04/01 02:15:45;;;;;;;124.88;65.53;;;282.20;1817.60;;;;;;5093499;28;20535;-75
2021/04/01 02:18:11;;;;;;;135.85;68.22;;;282.20;1843.20;;;;;;5093496;28;20038;-74
2021/04/01 02:20:41;;;;;;;148.98;72.78;;;282.20;1843.20;;;;;;5093406;28;20055;-75
2021/04/01 02:23:20;;;;;;;155.77;79.07;;;282.20;1843.20;;;;;;5090945;28;20053;-75
2021/04/01 02:25:48;;;;;;;154.98;76.00;;;282.20;1843.20;;;;;;5093251;28;20020;-75
2021/04/01 02:28:15;;;;;;;160.20;72.70;;;282.20;1843.20;;;;;;5092822;28;20035;-75
2021/04/01 02:30:43;;;;;;;132.90;66.50;;;282.10;1843.20;;;;;;5093029;28;20016;-73
2021/04/01 02:33:09;;;;;;;124.18;61.85;;;282.20;1843.20;;;;;;5093232;28;20096;-73
2021/04/01 02:35:36;;;;;;;126.70;61.50;;;282.20;1843.20;;;;;;5091306;28;20066;-73
2021/04/01 02:38:02;;;;;;;120.00;58.25;;;282.20;1843.20;;;;;;5093485;28;20032;-72
2021/04/01 02:40:28;;;;;;;115.38;56.63;;;282.10;1843.20;;;;;;5093646;28;20024;-73
2021/04/01 02:42:55;;;;;;;105.05;55.63;;;282.10;1868.80;;;;;;5093343;28;20047;-74
2021/04/01 02:45:20;;;;;;;102.47;53.25;;;282.10;1843.20;;;;;;5093309;28;20432;-73
2021/04/01 02:47:46;;;;;;;100.97;54.53;;;282.10;1868.80;;;;;;5093193;28;20107;-73
2021/04/01 02:50:13;;;;;;;97.03;51.25;;;282.10;1868.80;;;;;;5092584;28;20480;-71
2021/04/01 02:52:40;;;;;;;98.93;50.63;;;282.10;1868.80;;;;;;5094858;28;20034;-74
2021/04/01 02:55:09;;;;;;;96.50;51.45;;;282.10;1868.80;;;;;;5096463;28;20016;-74
2021/04/01 02:57:34;;;;;;;104.25;54.15;;;282.10;1868.80;;;;;;5094694;28;20039;-73
2021/04/01 03:00:05;;;;;;;94.60;52.25;;;282.10;1868.80;;;;;;5096306;28;20385;-73
2021/04/01 03:02:30;;;;;;;101.45;53.55;;;282.10;1843.20;;;;;;5096169;28;20015;-74
2021/04/01 03:04:56;;;;;;;107.57;57.30;;;282.10;1843.20;;;;;;5094347;28;20028;-74
2021/04/01 03:07:22;;;;;;;141.35;72.85;;;282.10;1868.80;;;;;;5094775;28;20497;-75
2021/04/01 03:09:48;;;;;;;183.57;92.85;;;282.10;1868.80;;;;;;5095777;28;20121;-71
2021/04/01 03:12:13;;;;;;;175.65;91.80;;;282.10;1868.80;;;;;;5096170;28;20111;-73
2021/04/01 03:14:39;;;;;;;163.00;84.13;;;282.10;1868.80;;;;;;5095112;28;20028;-74
2021/04/01 03:17:05;;;;;;;149.25;78.88;;;282.10;1894.40;;;;;;5096080;28;20020;-74
2021/04/01 03:19:31;;;;;;;144.38;74.55;;;282.10;1868.80;;;;;;5094223;28;20496;-72
2021/04/01 03:21:57;;;;;;;129.02;66.45;;;282.10;1868.80;;;;;;5093548;28;20040;-72
2021/04/01 03:24:22;;;;;;;122.82;68.07;;;282.10;1894.40;;;;;;5094279;28;20024;-73
2021/04/01 03:26:48;;;;;;;117.65;64.35;;;282.10;1894.40;;;;;;5095850;28;20024;-73
2021/04/01 03:29:14;;;;;;;116.75;62.78;;;282.10;1894.40;;;;;;5095500;28;20065;-73
2021/04/01 03:31:40;;;;;;;121.95;62.95;;;282.10;1894.40;;;;;;5090508;28;20138;-72
2021/04/01 03:34:06;;;;;;;106.18;61.15;;;282.10;1894.40;;;;;;5094490;28;20120;-73
2021/04/01 03:36:31;;;;;;;114.25;63.25;;;282.10;1894.40;;;;;;5092987;28;20114;-73
2021/04/01 03:38:58;;;;;;;121.93;64.30;;;282.10;1920.00;;;;;;5095493;28;20081;-73
2021/04/01 03:41:24;;;;;;;116.60;64.20;;;282.10;1920.00;;;;;;5094826;28;20021;-73
2021/04/01 03:43:50;;;;;;;126.50;62.70;;;282.10;1920.00;;;;;;5096112;28;20020;-73
2021/04/01 03:46:16;;;;;;;117.53;64.20;;;282.10;1945.60;;;;;;5094947;28;20077;-73
2021/04/01 03:48:41;;;;;;;126.93;65.35;;;282.20;1920.00;;;;;;5096363;28;20024;-73
2021/04/01 03:51:07;;;;;;;119.95;62.85;;;282.20;1920.00;;;;;;5096012;28;20065;-73
2021/04/01 03:53:33;;;;;;;122.57;62.35;;;282.10;1945.60;;;;;;5096085;28;20103;-72
2021/04/01 03:56:00;;;;;;;110.15;60.78;;;282.10;1945.60;;;;;;5095942;28;20031;-72
2021/04/01 04:12:03;;;;;;;97.50;55.00;;;282.10;1971.20;;;;;;5033769;28;20110;-72
2021/04/01 04:14:36;;;;;;;93.65;53.83;;;282.10;1971.20;;;;;;5033427;28;20029;-72
2021/04/01 04:17:02;;;;;;;100.55;56.25;;;282.10;1971.20;;;;;;5033241;28;20032;-73
2021/04/01 04:19:28;;;;;;;105.05;54.17;;;282.10;1971.20;;;;;;5033020;28;20045;-72
2021/04/01 04:21:53;;;;;;;89.43;48.92;;;282.10;1971.20;;;;;;5033170;28;20045;-73
2021/04/01 04:24:19;;;;;;;70.80;43.42;;;282.10;1971.20;;;;;;5033304;28;20039;-72
2021/04/01 04:26:45;;;;;;;68.05;39.95;;;282.10;1971.20;;;;;;5033103;28;20112;-73
2021/04/01 04:29:11;;;;;;;61.90;37.28;;;282.10;1971.20;;;;;;5033023;28;20080;-73
2021/04/01 04:31:37;;;;;;;66.00;35.55;;;282.10;1971.20;;;;;;5033102;28;20048;-73
2021/04/01 04:34:03;;;;;;;64.30;36.13;;;282.10;1971.20;;;;;;5032954;28;20494;-72
2021/04/01 04:36:28;;;;;;;54.95;33.45;;;282.00;1971.20;;;;;;5032651;28;20203;-73
2021/04/01 04:38:54;;;;;;;68.72;35.47;;;282.00;1996.80;;;;;;5032710;28;20046;-72
2021/04/01 04:41:20;;;;;;;58.88;34.38;;;282.00;1996.80;;;;;;5032958;28;20025;-73
2021/04/01 04:43:45;;;;;;;65.30;37.00;;;282.00;1971.20;;;;;;5032769;28;20093;-73
2021/04/01 04:46:12;;;;;;;71.10;37.30;;;282.00;1996.80;;;;;;5082877;28;20465;-73
2021/04/01 04:48:38;;;;;;;68.97;38.67;;;282.00;1996.80;;;;;;5094778;28;20034;-72
2021/04/01 04:51:04;;;;;;;62.28;36.55;;;281.90;1996.80;;;;;;5094542;28;20012;-72
2021/04/01 04:53:30;;;;;;;69.03;37.42;;;281.90;1996.80;;;;;;5094900;28;20035;-72
2021/04/01 05:04:36;;;;;;;61.03;35.58;;;281.90;1996.80;;;;;;5094949;28;20020;-72
2021/04/01 05:09:13;;;;;;;57.78;32.30;;;282.00;2022.40;;;;;;5094643;28;20291;-73
2021/04/01 05:11:38;;;;;;;52.90;33.10;;;282.00;2022.40;;;;;;5094535;28;20366;-73
2021/04/01 05:14:04;;;;;;;58.50;30.85;;;282.00;2022.40;;;;;;5094404;28;20028;-72
2021/04/01 05:16:30;;;;;;;52.20;30.83;;;282.00;2022.40;;;;;;5093575;28;20027;-72
2021/04/01 05:19:03;;;;;;;59.70;34.38;;;282.10;2022.40;;;;;;5094357;28;20092;-73
2021/04/01 05:21:44;;;;;;;59.50;33.30;;;282.20;2022.40;;;;;;5094276;28;20028;-73
2021/04/01 05:24:10;;;;;;;58.97;33.10;;;282.20;2022.40;;;;;;5094484;28;20066;-72
2021/04/01 05:26:56;;;;;;;56.60;33.95;;;282.30;2022.40;;;;;;5094396;28;20457;-73
2021/04/01 05:29:34;;;;;;;64.93;34.75;;;282.40;2022.40;;;;;;5094153;28;20020;-73
2021/04/01 05:32:02;;;;;;;71.75;36.95;;;282.40;2022.40;;;;;;5093028;28;20024;-73
2021/04/01 05:34:28;;;;;;;72.30;37.05;;;282.50;2022.40;;;;;;5092465;28;20084;-73
2021/04/01 05:36:55;;;;;;;115.75;47.08;;;307.20;2048.00;;;;;;5093877;28;20490;-73
2021/04/01 05:39:27;;;;;;;124.55;56.25;;;307.30;2048.00;;;;;;5093994;28;20085;-73
2021/04/01 05:41:54;;;;;;;130.90;61.67;;;307.40;2048.00;;;;;;5094095;28;20026;-73
2021/04/01 05:44:27;;;;;;;106.97;54.60;;;307.50;2048.00;;;;;;5094181;28;20145;-73
2021/04/01 05:47:08;;;;;;;103.50;47.33;;;307.70;2022.40;;;;;;5094158;28;20457;-73
2021/04/01 06:01:44;;;;;;;83.85;46.30;;;332.80;1996.80;;;;;;5094017;28;20035;-73
2021/04/01 06:03:54;;;;;;;86.90;42.38;;;333.00;1996.80;;;;;;5085407;28;20040;-73
2021/04/01 06:06:40;;;;;;;58.05;35.25;;;333.00;1945.60;;;;;;5093872;28;20024;-73
2021/04/01 06:09:38;;;;;;;58.30;32.78;;;333.20;1971.20;;;;;;5093774;28;20411;-73
2021/04/01 06:12:04;;;;;;;71.47;33.72;;;333.30;1945.60;;;;;;5088723;28;20059;-73
2021/04/01 06:14:32;;;;;;;61.42;34.17;;;333.40;1945.60;;;;;;5093923;28;20039;-73
2021/04/01 06:17:04;;;;;;;57.17;32.80;;;333.50;1945.60;;;;;;5093846;28;20013;-73
2021/04/01 06:19:35;;;;;;;61.75;36.03;;;333.60;1920.00;;;;;;5093668;28;20047;-73
2021/04/01 06:22:06;;;;;;;65.75;39.75;;;333.70;1920.00;;;;;;5093594;28;20073;-73
2021/04/01 06:24:34;;;;;;;57.88;34.85;;;358.40;1920.00;;;;;;5092985;28;20044;-73
2021/04/01 06:27:17;;;;;;;63.88;35.92;;;358.50;1920.00;;;;;;5094418;28;20024;-73
2021/04/01 06:32:33;;;;;;;54.88;35.25;;;358.70;1894.40;;;;;;5097839;28;20062;-73
2021/04/01 06:35:09;;;;;;;68.03;34.42;;;358.80;1843.20;;;;;;5097592;28;20358;-73
2021/04/01 06:40:18;;;;;;;61.72;37.05;;;359.10;1817.60;;;;;;5097323;28;20051;-73
2021/04/01 06:43:03;;;;;;;72.30;38.17;;;359.20;1817.60;;;;;;5097333;28;20032;-73
2021/04/01 06:45:30;;;;;;;71.25;39.40;;;384.00;1792.00;;;;;;5097734;28;20077;-72
2021/04/01 06:47:57;;;;;;;76.10;40.72;;;384.10;1792.00;;;;;;5095678;28;20537;-72
2021/04/01 06:50:35;;;;;;;109.53;44.10;;;384.30;1766.40;;;;;;5096957;28;20094;-74
2021/04/01 06:53:11;;;;;;;91.78;42.25;;;384.50;1766.40;;;;;;5097104;28;20381;-74
2021/04/01 06:55:49;;;;;;;113.38;45.63;;;384.70;1740.80;;;;;;5097027;28;20055;-74
2021/04/01 06:58:39;;;;;;;153.70;48.78;;;409.60;1740.80;;;;;;5096905;28;20042;-73
2021/04/01 07:01:19;;;;;;;111.88;44.83;;;409.80;1715.20;;;;;;5095615;28;20032;-74
2021/04/01 07:03:54;;;;;;;178.13;46.25;;;410.00;1689.60;;;;;;5096820;28;20024;-73
2021/04/01 07:06:26;;;;;;;209.10;52.20;;;410.20;1664.00;;;;;;5096930;28;20103;-73
2021/04/01 07:08:57;;;;;;;137.93;47.28;;;410.40;1664.00;;;;;;5096950;28;20110;-73
2021/04/01 07:11:38;;;;;;;201.05;69.85;;;435.20;1638.40;;;;;;5096907;28;20027;-74
2021/04/01 07:14:16;;;;;;;173.88;73.68;;;435.40;1612.80;;;;;;5096996;28;20044;-74
2021/04/01 07:16:54;;;;;;;208.02;84.72;;;435.60;1587.20;;;;;;5096986;28;20209;-74
2021/04/01 07:47:19;;;;;;;72.50;24.52;;;486.80;1408.00;;;;;;5096636;28;20059;-74
2021/04/01 07:49:47;;;;;;;56.13;21.88;;;487.00;1408.00;;;;;;5094499;28;20481;-74
2021/04/01 07:52:14;;;;;;;38.50;18.55;;;487.20;1382.40;;;;;;5096209;28;20066;-74
2021/04/01 08:03:04;;;;;;;30.13;18.38;;;512.60;1305.60;;;;;;5096143;28;20465;-74
2021/04/01 08:05:40;;;;;;;60.72;20.65;;;512.70;1305.60;;;;;;5095830;28;20397;-74
2021/04/01 08:08:10;;;;;;;60.50;20.20;;;537.60;1331.20;;;;;;5095883;28;20451;-74
2021/04/01 08:10:45;;;;;;;58.70;21.27;;;537.70;1305.60;;;;;;5095696;28;20055;-74
2021/04/01 08:13:14;;;;;;;49.92;30.13;;;537.90;1305.60;;;;;;5095704;28;20016;-73
2021/04/01 08:15:44;;;;;;;37.63;23.58;;;538.00;1280.00;;;;;;5095707;28;20024;-74
2021/04/01 08:20:41;;;;;;;38.13;24.35;;;538.30;1254.40;;;;;;5095645;28;20027;-75
2021/04/01 08:23:13;;;;;;;22.42;16.50;;;538.40;1254.40;;;;;;5094333;28;20059;-74
2021/04/01 08:26:10;;;;;;;18.02;15.45;;;538.50;1228.80;;;;;;5095373;28;20028;-74
2021/04/01 08:31:35;;;;;;;103.03;17.58;;;563.40;1203.20;;;;;;5095782;28;20107;-74
2021/04/01 08:36:48;;;;;;;44.67;15.70;;;563.60;1203.20;;;;;;5095025;28;20040;-75
2021/04/01 08:39:15;;;;;;;34.35;12.98;;;563.80;1177.60;;;;;;5095256;28;20036;-75
2021/04/01 08:41:53;;;;;;;29.20;18.00;;;563.90;1152.00;;;;;;5095120;28;20077;-75
2021/04/01 08:44:49;;;;;;;25.08;12.45;;;564.00;1152.00;;;;;;5097481;28;20462;-75
2021/04/01 08:47:27;;;;;;;37.65;11.02;;;564.10;1152.00;;;;;;5095129;28;20093;-75
2021/04/01 08:50:03;;;;;;;23.15;8.35;;;588.90;1126.40;;;;;;5093603;28;20070;-74
2021/04/01 08:52:38;;;;;;;16.60;10.05;;;588.90;1100.80;;;;;;5094600;28;20684;-74
2021/04/01 08:55:18;;;;;;;15.70;10.77;;;588.90;1100.80;;;;;;5093753;28;20080;-75
2021/04/01 08:58:33;;;;;;;20.08;13.18;;;589.00;1100.80;;;;;;5093566;28;20058;-74
2021/04/01 09:01:24;;;;;;;20.10;10.27;;;589.00;1100.80;;;;;;4954768;28;20043;-74
2021/04/01 09:03:51;;;;;;;23.95;8.82;;;589.10;1075.20;;;;;;4938510;29;20049;-75
2021/04/01 09:06:22;;;;;;;33.05;15.38;;;589.10;1075.20;;;;;;4938379;29;20094;-75
2021/04/01 09:08:58;;;;;;;346.20;38.85;;;589.20;1075.20;;;;;;4954265;28;20413;-75
2021/04/01 09:11:46;;;;;;;95.15;16.65;;;589.20;1075.20;;;;;;4938596;28;20043;-76
2021/04/01 09:14:23;;;;;;;40.30;9.93;;;589.30;1049.60;;;;;;4954265;28;20173;-75
2021/04/01 09:17:13;;;;;;;12.95;6.85;;;589.40;1049.60;;;;;;4954180;28;20026;-75
2021/04/01 09:19:41;;;;;;;11.55;6.50;;;589.50;1049.60;;;;;;4954235;29;20047;-76
2021/04/01 09:22:20;;;;;;;11.93;6.72;;;589.60;1024.00;;;;;;4954908;29;20023;-75
2021/04/01 09:25:00;;;;;;;44.90;13.30;;;589.70;1024.00;;;;;;4938842;28;20067;-75
2021/04/01 09:27:27;;;;;;;74.55;32.22;;;614.40;1024.00;;;;;;4954201;29;20184;-73
2021/04/01 09:30:14;;;;;;;49.92;21.35;;;614.50;1024.00;;;;;;4954551;28;20054;-75
2021/04/01 09:32:43;;;;;;;37.15;21.38;;;614.60;1024.00;;;;;;4954556;28;20110;-74
2021/04/01 09:35:11;;;;;;;152.00;63.22;;;614.80;1024.00;;;;;;4954291;28;20102;-75
2021/04/01 09:37:49;;;;;;;59.38;30.55;;;614.90;998.40;;;;;;5022534;28;20040;-74
2021/04/01 09:40:16;;;;;;;70.63;24.60;;;615.00;998.40;;;;;;5094548;28;20032;-74
2021/04/01 09:42:43;;;;;;;28.80;12.65;;;615.00;998.40;;;;;;5094381;28;20028;-74
2021/04/01 09:45:11;;;;;;;23.10;9.75;;;615.10;972.80;;;;;;5092373;28;20031;-74
2021/04/01 09:47:46;;;;;;;26.58;8.73;;;615.10;972.80;;;;;;5094097;28;20020;-73
2021/04/01 09:50:13;;;;;;;10.70;8.85;;;615.20;972.80;;;;;;5094078;28;20020;-74
2021/04/01 09:52:41;;;;;;;10.38;7.90;;;615.20;947.20;;;;;;5092493;28;20389;-74
2021/04/01 09:55:12;;;;;;;19.55;7.55;;;615.20;947.20;;;;;;5094099;28;20024;-74
2021/04/01 09:57:46;;;;;;;15.68;8.68;;;615.30;972.80;;;;;;5094101;28;20048;-74
2021/04/01 10:03:05;;;;;;;158.23;17.58;;;640.00;947.20;;;;;;5093417;28;20024;-74
2021/04/01 10:05:40;;;;;;;71.38;11.82;;;640.00;947.20;;;;;;5092286;28;20080;-75
2021/04/01 10:08:30;;;;;;;22.00;8.57;;;640.00;972.80;;;;;;5092148;28;20115;-74
2021/04/01 10:10:59;;;;;;;19.30;9.05;;;640.10;947.20;;;;;;5011894;28;20112;-75
2021/04/01 10:13:30;;;;;;;39.35;10.70;;;640.10;921.60;;;;;;5011965;28;20034;-75
2021/04/01 10:15:58;;;;;;;81.80;12.95;;;640.10;947.20;;;;;;5011555;28;20048;-76
2021/04/01 10:18:30;;;;;;;134.07;15.50;;;640.20;947.20;;;;;;5011483;28;20042;-75
2021/04/01 10:21:08;;;;;;;80.97;12.13;;;640.20;947.20;;;;;;5011763;28;20065;-75
2021/04/01 10:23:54;;;;;;;67.03;10.73;;;640.20;947.20;;;;;;4995070;28;20033;-75
2021/04/01 10:26:28;;;;;;;24.85;8.40;;;640.30;947.20;;;;;;4995346;28;20029;-75
2021/04/01 10:31:30;;;;;;;19.52;7.95;;;640.50;921.60;;;;;;5011631;28;19914;-75
2021/04/01 10:34:29;;;;;;;13.90;7.60;;;640.60;921.60;;;;;;5011673;28;20109;-76
2021/04/01 10:36:59;;;;;;;11.73;7.20;;;640.60;896.00;;;;;;4994567;28;20049;-75
2021/04/01 10:39:32;;;;;;;14.63;6.80;;;640.60;896.00;;;;;;4994979;28;20125;-75
2021/04/01 10:41:58;;;;;;;50.88;12.20;;;640.70;921.60;;;;;;5011669;28;20121;-75
2021/04/01 10:44:24;;;;;;;43.33;12.93;;;640.70;921.60;;;;;;5011016;28;20116;-74
2021/04/01 10:46:57;;;;;;;48.05;13.73;;;640.70;896.00;;;;;;4999475;28;20117;-75
2021/04/01 10:49:25;;;;;;;18.65;9.27;;;640.80;896.00;;;;;;5093322;28;20032;-75
2021/04/01 10:51:54;;;;;;;17.90;8.23;;;665.60;921.60;;;;;;5093406;28;20051;-75
2021/04/01 10:54:20;;;;;;;18.15;7.80;;;665.60;921.60;;;;;;5093538;28;20043;-75
2021/04/01 10:56:55;;;;;;;13.70;7.90;;;665.70;896.00;;;;;;5092102;28;20023;-75
2021/04/01 10:59:37;;;;;;;16.42;7.43;;;665.70;896.00;;;;;;5092248;28;20481;-75
2021/04/01 11:02:10;;;;;;;18.48;7.25;;;665.70;921.60;;;;;;5092077;28;20024;-75
2021/04/01 11:04:38;;;;;;;27.48;7.82;;;665.80;921.60;;;;;;5093489;28;20024;-75
2021/04/01 11:07:05;;;;;;;15.77;7.05;;;665.80;921.60;;;;;;5091443;28;20035;-75
2021/04/01 11:09:34;;;;;;;15.25;6.82;;;665.90;921.60;;;;;;5092629;28;20024;-75
2021/04/01 11:14:30;;;;;;;13.07;6.45;;;666.00;896.00;;;;;;5095154;28;20027;-75
2021/04/01 11:16:59;;;;;;;13.30;6.63;;;666.10;921.60;;;;;;5096296;28;20024;-75
2021/04/01 11:19:27;;;;;;;16.98;7.07;;;666.10;896.00;;;;;;5096531;28;20036;-77
2021/04/01 11:21:55;;;;;;;9.40;6.72;;;666.10;870.40;;;;;;5095373;28;20066;-75
2021/04/01 11:24:35;;;;;;;14.15;6.65;;;666.10;870.40;;;;;;5094943;28;20169;-75
2021/04/01 11:27:10;;;;;;;8.23;6.38;;;666.10;870.40;;;;;;5095619;28;20442;-75
2021/04/01 11:29:36;;;;;;;10.68;6.82;;;666.10;870.40;;;;;;5096393;28;20020;-75
2021/04/01 11:32:14;;;;;;;8.45;5.95;;;666.10;896.00;;;;;;5096407;28;20016;-75
2021/04/01 11:34:43;;;;;;;12.23;6.25;;;666.10;896.00;;;;;;5096647;28;20081;-74
2021/04/01 11:37:10;;;;;;;10.15;5.88;;;666.10;870.40;;;;;;5096196;28;20500;-75
2021/04/01 11:39:40;;;;;;;16.42;6.85;;;666.30;870.40;;;;;;5096334;28;20423;-74
2021/04/01 11:42:14;;;;;;;15.23;5.95;;;666.30;870.40;;;;;;5095195;28;20069;-75
2021/04/01 11:44:40;;;;;;;8.15;5.68;;;666.30;870.40;;;;;;5096148;28;20158;-75
2021/04/01 11:47:36;;;;;;;12.80;6.03;;;666.20;870.40;;;;;;5094553;28;20044;-74
2021/04/01 11:50:05;;;;;;;10.77;6.05;;;666.30;870.40;;;;;;5011998;28;20180;-74
2021/04/01 11:52:31;;;;;;;9.75;6.80;;;666.30;844.80;;;;;;5011968;28;20069;-74
2021/04/01 11:55:11;;;;;;;11.25;5.90;;;666.30;844.80;;;;;;5011796;28;20046;-74
2021/04/01 11:57:43;;;;;;;7.63;6.05;;;666.30;844.80;;;;;;5010646;28;20030;-74
2021/04/01 12:00:17;;;;;;;12.15;5.57;;;666.30;870.40;;;;;;5012340;28;20049;-75
2021/04/01 12:05:24;;;;;;;11.10;5.90;;;666.40;870.40;;;;;;5010951;28;20121;-74
2021/04/01 12:07:51;;;;;;;14.52;6.28;;;666.50;870.40;;;;;;5013180;28;20040;-74
2021/04/01 12:10:18;;;;;;;11.88;6.18;;;666.50;870.40;;;;;;5012462;28;20018;-74
2021/04/01 12:12:43;;;;;;;11.10;6.35;;;666.50;844.80;;;;;;5011397;28;20138;-73
2021/04/01 12:15:10;;;;;;;12.60;5.80;;;666.40;870.40;;;;;;5012061;28;20030;-73
2021/04/01 12:17:41;;;;;;;13.77;6.10;;;666.50;870.40;;;;;;4973700;28;20038;-73
2021/04/01 12:20:13;;;;;;;10.10;5.78;;;691.20;870.40;;;;;;5010737;28;20042;-74
2021/04/01 12:22:43;;;;;;;9.88;6.05;;;691.20;844.80;;;;;;5012011;28;20026;-73
2021/04/01 12:25:15;;;;;;;11.27;7.85;;;691.20;844.80;;;;;;5011380;28;20104;-74
2021/04/01 12:27:55;;;;;;;8.40;6.00;;;691.20;844.80;;;;;;5092829;28;20534;-74
2021/04/01 12:30:51;;;;;;;9.88;5.68;;;691.20;844.80;;;;;;5093626;28;20060;-74
2021/04/01 12:33:24;;;;;;;13.05;6.80;;;691.20;844.80;;;;;;5094361;28;20436;-74
2021/04/01 12:35:56;;;;;;;10.80;6.57;;;691.20;870.40;;;;;;5095074;28;20385;-74
2021/04/01 12:38:37;;;;;;;12.45;6.57;;;691.20;870.40;;;;;;5095367;28;20046;-74
2021/04/01 12:41:26;;;;;;;18.23;6.97;;;691.20;844.80;;;;;;5095510;28;20047;-74
2021/04/01 12:43:53;;;;;;;17.15;6.97;;;691.20;844.80;;;;;;5095065;28;20458;-74
2021/04/01 12:46:19;;;;;;;8.93;6.13;;;691.20;844.80;;;;;;5093876;28;20462;-74
2021/04/01 12:48:48;;;;;;;11.20;6.35;;;666.50;844.80;;;;;;5095174;28;20035;-74
2021/04/01 12:51:19;;;;;;;11.50;6.75;;;666.40;844.80;;;;;;5094877;28;20044;-74
2021/04/01 12:54:00;;;;;;;10.00;6.82;;;666.40;844.80;;;;;;5093589;28;20028;-74
2021/04/01 12:56:30;;;;;;;13.82;6.53;;;666.40;870.40;;;;;;5092851;28;20038;-76
2021/04/01 12:59:04;;;;;;;11.63;6.95;;;666.40;870.40;;;;;;5094386;28;20064;-77
2021/04/01 13:01:37;;;;;;;12.18;7.30;;;666.40;870.40;;;;;;5095284;28;20112;-76
2021/04/01 13:04:08;;;;;;;10.15;7.18;;;666.40;844.80;;;;;;5090226;28;20028;-76
2021/04/01 13:11:48;;;;;;;11.13;6.38;;;666.30;844.80;;;;;;5093028;28;20032;-77
2021/04/01 13:14:13;;;;;;;11.98;6.20;;;666.30;844.80;;;;;;5091843;28;20548;-76
2021/04/01 13:16:40;;;;;;;17.65;6.57;;;666.30;844.80;;;;;;5093103;28;20111;-76
2021/04/01 13:19:07;;;;;;;11.05;6.22;;;666.20;870.40;;;;;;5093272;28;20468;-76
2021/04/01 13:26:42;;;;;;;9.88;6.10;;;666.10;870.40;;;;;;5093377;28;20100;-76
2021/04/01 13:29:09;;;;;;;10.13;6.22;;;666.10;896.00;;;;;;5092604;28;20066;-76
2021/04/01 13:34:26;;;;;;;14.27;6.20;;;666.10;896.00;;;;;;5090270;28;20016;-76
2021/04/01 13:39:38;;;;;;;16.55;6.32;;;666.00;870.40;;;;;;5094159;28;20032;-77
2021/04/01 13:42:09;;;;;;;12.40;6.38;;;666.10;870.40;;;;;;5109849;28;20031;-76
2021/04/01 13:44:54;;;;;;;11.45;6.72;;;666.00;870.40;;;;;;5094015;28;20024;-77
2021/04/01 13:47:21;;;;;;;10.43;7.45;;;666.00;870.40;;;;;;5094413;28;20411;-77
2021/04/01 13:49:50;;;;;;;13.95;7.82;;;666.00;870.40;;;;;;5094082;28;20028;-77
2021/04/01 13:55:18;;;;;;;;;;;666.00;896.00;;;;;;5094892;28;20093;-77
2021/04/01 14:01:05;;;;;;;17.88;6.07;;;665.80;870.40;;;;;;5051592;28;20076;-77
2021/04/01 14:09:24;;;;;;;10.68;5.55;;;640.80;844.80;;;;;;5051750;28;20170;-77
2021/04/01 14:11:50;;;;;;;9.25;6.03;;;640.70;844.80;;;;;;5051629;28;20045;-77
2021/04/01 14:14:17;;;;;;;11.30;6.38;;;640.70;870.40;;;;;;5051518;28;20025;-77
2021/04/01 14:16:43;;;;;;;8.82;5.60;;;640.60;896.00;;;;;;5051552;28;20036;-77
2021/04/01 14:19:09;;;;;;;8.05;6.20;;;640.60;870.40;;;;;;5051514;28;20045;-77
2021/04/01 14:21:35;;;;;;;7.22;5.55;;;640.50;896.00;;;;;;5051309;28;20074;-77
2021/04/01 14:24:16;;;;;;;9.63;6.03;;;640.30;896.00;;;;;;5051318;28;20524;-77
2021/04/01 14:26:47;;;;;;;10.70;5.63;;;640.30;921.60;;;;;;5051290;28;20049;-77